createdAt,value
2023-03-29T00:02:14.882Z,2.70
2023-03-29T00:04:42.123Z,1.65
2023-03-29T00:07:09.466Z,4.15
2023-03-29T00:09:36.597Z,5.22
2023-03-29T00:12:03.674Z,3.08
2023-03-29T00:14:31.357Z,4.03
2023-03-29T00:16:59.218Z,4.20
2023-03-29T00:19:26.833Z,3.28
2023-03-29T00:21:53.907Z,2.78
2023-03-29T00:24:24.024Z,4.90
2023-03-29T00:26:51.229Z,2.53
2023-03-29T00:29:18.262Z,3.08
2023-03-29T00:31:51.530Z,2.20
2023-03-29T00:34:18.561Z,3.10
2023-03-29T00:36:45.756Z,2.67
2023-03-29T00:39:12.805Z,2.97
2023-03-29T00:41:39.781Z,2.80
2023-03-29T00:44:06.790Z,5.32
2023-03-29T00:46:35.226Z,4.43
2023-03-29T00:49:09.503Z,2.28
2023-03-29T00:51:39.535Z,2.60
2023-03-29T00:54:14.964Z,3.33
2023-03-29T00:56:46.363Z,4.30
2023-03-29T00:59:19.383Z,3.17
2023-03-29T01:01:54.778Z,2.85
2023-03-29T01:04:53.275Z,2.58
2023-03-29T01:07:32.079Z,3.03
2023-03-29T01:10:04.479Z,2.80
2023-03-29T01:12:37.977Z,3.72
2023-03-29T01:15:14.064Z,2.05
2023-03-29T01:17:50.510Z,2.47
2023-03-29T01:20:27.073Z,2.78
2023-03-29T01:25:32.914Z,2.88
2023-03-29T01:28:12.903Z,2.28
2023-03-29T01:30:43.842Z,2.70
2023-03-29T01:33:21.346Z,2.83
2023-03-29T01:36:01.724Z,3.47
2023-03-29T01:38:36.566Z,2.55
2023-03-29T01:41:04.344Z,2.35
2023-03-29T01:43:40.825Z,11.32
2023-03-29T01:46:19.268Z,3.22
2023-03-29T01:48:57.363Z,2.53
2023-03-29T01:51:38.922Z,5.10
2023-03-29T01:54:06.091Z,2.58
2023-03-29T01:56:37.750Z,2.58
2023-03-29T01:59:11.419Z,3.65
2023-03-29T02:01:49.443Z,2.25
2023-03-29T02:04:32.645Z,2.47
2023-03-29T02:07:02.217Z,3.67
2023-03-29T02:09:32.156Z,5.10
2023-03-29T02:12:02.274Z,2.33
2023-03-29T02:14:33.353Z,5.95
2023-03-29T02:17:19.824Z,2.78
2023-03-29T02:19:53.480Z,3.33
2023-03-29T02:22:27.802Z,3.08
2023-03-29T02:24:59.417Z,8.05
2023-03-29T02:27:29.696Z,2.90
2023-03-29T02:29:58.559Z,2.83
2023-03-29T02:32:35.754Z,2.22
2023-03-29T02:35:13.226Z,8.02
2023-03-29T02:37:44.432Z,3.50
2023-03-29T02:40:14.612Z,1.75
2023-03-29T02:42:44.860Z,3.22
2023-03-29T02:45:16.443Z,3.63
2023-03-29T02:47:49.814Z,2.85
2023-03-29T02:50:17.528Z,2.65
2023-03-29T02:52:56.243Z,2.30
2023-03-29T02:55:26.500Z,2.67
2023-03-29T02:57:53.479Z,2.55
2023-03-29T03:00:23.467Z,3.80
2023-03-29T03:02:51.954Z,3.30
2023-03-29T03:05:19.595Z,2.35
2023-03-29T03:07:47.220Z,1.45
2023-03-29T03:10:14.497Z,4.70
2023-03-29T03:12:41.625Z,2.47
2023-03-29T03:15:09.237Z,2.10
2023-03-29T03:17:40.359Z,3.08
2023-03-29T03:20:14.935Z,2.28
2023-03-29T03:22:49.125Z,5.07
2023-03-29T03:25:19.704Z,11.07
2023-03-29T03:27:49.993Z,2.88
2023-03-29T03:30:20.961Z,3.85
2023-03-29T03:33:24.217Z,2.38
2023-03-29T03:36:11.334Z,2.78
2023-03-29T03:38:38.994Z,4.57
2023-03-29T03:41:09.623Z,2.78
2023-03-29T03:43:36.818Z,3.08
2023-03-29T03:46:04.117Z,3.28
2023-03-29T03:48:31.789Z,4.82
2023-03-29T03:51:06.118Z,2.33
2023-03-29T03:53:35.355Z,4.55
2023-03-29T03:56:14.862Z,3.63
2023-03-29T03:59:11.119Z,3.42
2023-03-29T04:01:58.744Z,2.55
2023-03-29T04:04:27.066Z,2.47
2023-03-29T04:07:17.961Z,3.35
2023-03-29T04:10:04.866Z,2.92
2023-03-29T04:12:46.719Z,1.90
2023-03-29T04:15:13.841Z,2.90
2023-03-29T04:17:48.070Z,4.15
2023-03-29T04:20:27.450Z,4.60
2023-03-29T04:22:54.797Z,4.95
2023-03-29T04:25:22.471Z,3.15
2023-03-29T04:27:50.630Z,4.45
2023-03-29T04:30:33.681Z,6.50
2023-03-29T04:33:11.421Z,5.35
2023-03-29T04:35:41.706Z,3.72
2023-03-29T04:38:13.255Z,7.03
2023-03-29T04:40:42.230Z,4.15
2023-03-29T04:43:16.771Z,3.15
2023-03-29T04:45:55.295Z,5.93
2023-03-29T04:48:40.967Z,2.65
2023-03-29T04:51:09.021Z,2.85
2023-03-29T04:53:36.852Z,3.17
2023-03-29T04:56:04.214Z,2.55
2023-03-29T04:58:51.308Z,2.45
2023-03-29T05:01:18.653Z,2.80
2023-03-29T05:03:53.410Z,5.57
2023-03-29T05:06:29.268Z,3.38
2023-03-29T05:08:56.948Z,3.65
2023-03-29T05:11:31.824Z,3.28
2023-03-29T05:14:02.634Z,4.70
2023-03-29T05:16:33.009Z,6.30
2023-03-29T05:19:01.164Z,6.80
2023-03-29T05:21:28.732Z,6.68
2023-03-29T05:23:59.011Z,3.65
2023-03-29T05:26:45.068Z,3.85
2023-03-29T05:29:13.083Z,3.20
2023-03-29T05:31:42.101Z,3.50
2023-03-29T05:34:09.132Z,3.42
2023-03-29T05:36:43.013Z,5.20
2023-03-29T05:39:11.013Z,4.28
2023-03-29T05:41:41.728Z,7.45
2023-03-29T05:44:30.817Z,6.47
2023-03-29T05:48:17.096Z,4.68
2023-03-29T05:50:48.649Z,2.83
2023-03-29T05:53:17.926Z,3.85
2023-03-29T05:55:45.503Z,4.75
2023-03-29T05:58:18.227Z,3.78
2023-03-29T06:00:45.846Z,2.70
2023-03-29T06:03:28.613Z,2.38
2023-03-29T06:06:02.528Z,3.05
2023-03-29T06:08:32.011Z,3.58
2023-03-29T06:11:22.403Z,2.35
2023-03-29T06:14:13.820Z,3.25
2023-03-29T06:16:47.215Z,3.95
2023-03-29T06:19:15.642Z,3.55
2023-03-29T06:21:42.672Z,2.45
2023-03-29T06:24:13.650Z,2.85
2023-03-29T06:26:47.189Z,3.70
2023-03-29T06:29:14.945Z,3.22
2023-03-29T06:31:43.294Z,3.42
2023-03-29T06:34:24.241Z,3.70
2023-03-29T06:37:06.823Z,2.60
2023-03-29T06:39:34.132Z,5.25
2023-03-29T06:42:21.783Z,7.47
2023-03-29T06:45:09.614Z,3.67
2023-03-29T06:47:39.808Z,2.83
2023-03-29T06:50:09.065Z,3.22
2023-03-29T06:52:54.535Z,3.38
2023-03-29T06:55:23.551Z,3.08
2023-03-29T06:57:52.867Z,2.55
2023-03-29T07:00:28.302Z,6.00
2023-03-29T07:03:23.653Z,5.15
2023-03-29T07:06:01.839Z,2.95
2023-03-29T07:08:35.300Z,3.00
2023-03-29T07:11:07.294Z,2.55
2023-03-29T07:13:54.356Z,2.65
2023-03-29T07:16:21.995Z,1.63
2023-03-29T07:18:54.497Z,3.25
2023-03-29T07:21:44.546Z,3.03
2023-03-29T07:24:11.785Z,3.92
2023-03-29T07:26:46.333Z,2.50
2023-03-29T07:29:19.747Z,3.38
2023-03-29T07:31:46.998Z,3.33
2023-03-29T07:34:37.120Z,2.90
2023-03-29T07:37:07.315Z,3.50
2023-03-29T07:39:35.532Z,3.60
2023-03-29T07:42:32.063Z,3.33
2023-03-29T07:45:00.164Z,3.10
2023-03-29T07:47:34.043Z,3.88
2023-03-29T07:50:02.837Z,2.83
2023-03-29T07:52:30.499Z,3.17
2023-03-29T07:54:58.803Z,3.25
2023-03-29T07:57:44.678Z,3.22
2023-03-29T08:00:16.869Z,4.70
2023-03-29T08:02:55.102Z,3.70
2023-03-29T08:05:37.829Z,9.20
2023-03-29T08:08:11.549Z,4.90
2023-03-29T08:11:06.496Z,2.42
2023-03-29T08:13:40.025Z,2.80
2023-03-29T08:16:42.415Z,2.85
2023-03-29T08:19:14.782Z,2.67
2023-03-29T08:21:54.484Z,4.38
2023-03-29T08:24:24.672Z,2.25
2023-03-29T08:26:56.941Z,3.05
2023-03-29T08:29:25.161Z,5.60
2023-03-29T08:31:52.918Z,4.05
2023-03-29T08:34:20.214Z,2.72
2023-03-29T08:37:05.847Z,3.75
2023-03-29T08:40:47.559Z,3.70
2023-03-29T08:43:17.013Z,8.70
2023-03-29T08:46:37.636Z,3.63
2023-03-29T08:49:18.866Z,2.15
2023-03-29T08:51:49.952Z,8.52
2023-03-29T08:54:25.545Z,4.55
2023-03-29T08:57:19.444Z,4.88
2023-03-29T08:59:55.243Z,2.58
2023-03-29T09:02:27.325Z,4.47
2023-03-29T09:05:19.097Z,3.08
2023-03-29T09:08:25.143Z,5.45
2023-03-29T09:11:18.298Z,7.45
2023-03-29T09:14:10.535Z,4.18
2023-03-29T09:16:48.778Z,4.15
2023-03-29T09:19:43.400Z,4.95
2023-03-29T09:22:36.114Z,5.70
2023-03-29T09:25:29.801Z,3.42
2023-03-29T09:28:02.678Z,5.20
2023-03-29T09:30:55.289Z,3.67
2023-03-29T09:33:37.260Z,3.13
2023-03-29T09:36:17.981Z,3.90
2023-03-29T09:38:51.227Z,3.05
2023-03-29T09:41:32.311Z,4.03
2023-03-29T09:44:12.758Z,2.72
2023-03-29T10:17:32.863Z,4.67
2023-03-29T10:20:04.155Z,5.30
2023-03-29T10:22:38.073Z,5.50
2023-03-29T10:25:12.865Z,4.72
2023-03-29T10:27:42.741Z,4.57
2023-03-29T10:30:13.229Z,4.75
2023-03-29T10:32:41.610Z,5.47
2023-03-29T10:35:13.191Z,6.80
2023-03-29T10:37:43.662Z,4.63
2023-03-29T10:40:31.629Z,4.15
2023-03-29T10:43:13.062Z,3.15
2023-03-29T10:45:42.535Z,4.97
2023-03-29T10:48:14.863Z,3.38
2023-03-29T10:50:42.997Z,2.88
2023-03-29T10:53:21.711Z,3.42
2023-03-29T10:56:29.590Z,3.67
2023-03-29T10:59:02.311Z,5.82
2023-03-29T11:01:44.666Z,4.03
2023-03-29T11:05:08.580Z,3.38
2023-03-29T11:07:47.735Z,3.55
2023-03-29T11:10:40.759Z,8.25
2023-03-29T11:13:46.579Z,3.58
2023-03-29T11:16:25.770Z,3.47
2023-03-29T11:19:07.100Z,3.38
2023-03-29T11:21:51.260Z,3.83
2023-03-29T11:24:27.706Z,4.18
2023-03-29T11:27:23.271Z,4.07
2023-03-29T11:30:13.414Z,4.78
2023-03-29T11:33:04.244Z,4.20
2023-03-29T11:35:34.464Z,5.50
2023-03-29T11:38:10.516Z,4.30
2023-03-29T11:40:50.129Z,4.35
2023-03-29T11:43:23.258Z,4.40
2023-03-29T11:45:56.082Z,4.65
2023-03-29T11:48:30.008Z,3.80
2023-03-29T11:51:26.862Z,4.35
2023-03-29T11:53:53.983Z,4.20
2023-03-29T11:56:33.577Z,3.97
2023-03-29T11:59:27.350Z,4.20
2023-03-29T12:02:36.024Z,4.55
2023-03-29T12:05:13.858Z,5.50
2023-03-29T12:07:48.939Z,4.43
2023-03-29T12:10:44.260Z,4.35
2023-03-29T12:13:24.723Z,4.32
2023-03-29T12:16:02.596Z,3.80
2023-03-29T12:18:42.674Z,4.45
2023-03-29T12:21:17.236Z,4.28
2023-03-29T12:23:46.034Z,3.60
2023-03-29T12:26:28.014Z,3.70
2023-03-29T12:29:17.949Z,3.40
2023-03-29T12:32:19.706Z,2.80
2023-03-29T12:35:34.758Z,2.28
2023-03-29T12:38:24.260Z,2.42
2023-03-29T12:41:21.900Z,2.60
2023-03-29T12:44:10.709Z,5.47
2023-03-29T12:46:55.293Z,2.83
2023-03-29T12:49:38.262Z,3.53
2023-03-29T12:52:34.801Z,3.28
2023-03-29T12:55:05.073Z,3.60
2023-03-29T12:57:38.091Z,1.98
2023-03-29T13:00:22.586Z,1.65
2023-03-29T13:03:19.921Z,1.08
2023-03-29T13:08:26.552Z,0.65
2023-03-29T13:10:56.229Z,0.93
2023-03-29T13:13:34.456Z,0.90
2023-03-29T13:16:17.135Z,1.20
2023-03-29T13:19:02.034Z,0.90
2023-03-29T13:21:29.082Z,1.52
2023-03-29T13:24:21.006Z,1.25
2023-03-29T13:27:18.291Z,1.77
2023-03-29T13:30:23.577Z,1.77
2023-03-29T13:33:42.683Z,1.15
2023-03-29T13:36:49.577Z,1.70
2023-03-29T13:39:22.736Z,1.40
2023-03-29T13:41:53.234Z,1.58
2023-03-29T13:44:23.128Z,1.52
2023-03-29T13:47:03.095Z,1.42
2023-03-29T13:49:34.049Z,2.22
2023-03-29T13:52:20.284Z,2.38
2023-03-29T13:55:14.921Z,2.40
2023-03-29T13:57:59.859Z,4.05
2023-03-29T14:00:49.758Z,2.85
2023-03-29T14:03:20.568Z,2.17
2023-03-29T14:05:57.863Z,2.30
2023-03-29T14:08:32.876Z,4.63
2023-03-29T14:11:04.857Z,2.47
2023-03-29T14:13:32.087Z,3.92
2023-03-29T14:16:07.024Z,7.65
2023-03-29T14:18:39.770Z,4.88
2023-03-29T14:21:08.548Z,3.50
2023-03-29T14:23:38.121Z,4.68
2023-03-29T14:26:14.523Z,1.65
2023-03-29T14:29:01.938Z,4.95
2023-03-29T14:31:35.679Z,2.92
2023-03-29T14:34:06.144Z,2.55
2023-03-29T14:36:34.283Z,2.92
2023-03-29T14:39:05.760Z,3.03
2023-03-29T14:41:36.953Z,2.28
2023-03-29T14:44:06.952Z,4.53
2023-03-29T14:46:35.241Z,6.85
2023-03-29T14:49:02.787Z,7.25
2023-03-29T14:51:31.289Z,3.33
2023-03-29T14:54:00.517Z,3.08
2023-03-29T14:56:28.268Z,3.08
2023-03-29T14:58:57.031Z,4.47
2023-03-29T15:01:26.887Z,3.33
2023-03-29T15:03:55.101Z,2.03
2023-03-29T15:06:25.150Z,5.18
2023-03-29T15:09:04.188Z,4.30
2023-03-29T15:11:32.333Z,2.90
2023-03-29T15:14:06.739Z,2.47
2023-03-29T15:16:36.963Z,5.10
2023-03-29T15:19:04.560Z,3.88
2023-03-29T15:21:34.410Z,3.05
2023-03-29T15:24:04.317Z,3.70
2023-03-29T15:26:35.139Z,2.60
2023-03-29T15:29:12.748Z,2.42
2023-03-29T15:31:41.954Z,4.85
2023-03-29T15:34:14.544Z,3.10
2023-03-29T15:36:45.344Z,2.38
2023-03-29T15:39:15.426Z,3.72
2023-03-29T15:41:43.991Z,5.43
2023-03-29T15:44:11.502Z,3.67
2023-03-29T15:46:38.800Z,2.17
2023-03-29T15:49:06.088Z,2.75
2023-03-29T15:51:33.260Z,2.95
2023-03-29T15:54:00.443Z,4.20
2023-03-29T15:56:27.742Z,3.33
2023-03-29T15:58:54.984Z,3.10
2023-03-29T16:01:34.612Z,4.45
2023-03-29T16:04:04.410Z,4.03
2023-03-29T16:06:32.342Z,3.10
2023-03-29T16:08:59.557Z,4.68
2023-03-29T16:11:28.621Z,5.43
2023-03-29T16:13:56.407Z,3.17
2023-03-29T16:16:24.623Z,3.10
2023-03-29T16:18:51.940Z,3.35
2023-03-29T16:21:22.312Z,3.88
2023-03-29T16:23:49.966Z,4.53
2023-03-29T16:26:17.438Z,4.05
2023-03-29T16:28:44.611Z,4.53
2023-03-29T16:31:13.562Z,5.20
2023-03-29T16:33:41.703Z,4.72
2023-03-29T16:36:09.478Z,5.57
2023-03-29T16:38:37.263Z,2.88
2023-03-29T16:41:04.598Z,3.92
2023-03-29T16:43:31.888Z,5.10
2023-03-29T16:45:59.076Z,4.38
2023-03-29T16:48:27.228Z,4.53
2023-03-29T16:50:54.521Z,4.25
2023-03-29T16:53:22.458Z,4.20
2023-03-29T16:55:49.961Z,6.93
2023-03-29T16:58:17.236Z,4.65
2023-03-29T17:00:47.899Z,5.15
2023-03-29T17:03:16.307Z,4.15
2023-03-29T17:06:02.981Z,4.82
2023-03-29T17:08:30.516Z,4.57
2023-03-29T17:10:57.842Z,5.22
2023-03-29T17:13:26.078Z,4.53
2023-03-29T17:15:55.757Z,4.72
2023-03-29T17:18:25.752Z,4.30
2023-03-29T17:20:57.026Z,4.03
2023-03-29T17:23:25.065Z,3.30
2023-03-29T17:25:54.848Z,4.03
2023-03-29T17:28:22.836Z,5.53
2023-03-29T17:30:50.257Z,5.72
2023-03-29T17:33:18.639Z,8.80
2023-03-29T17:35:48.642Z,7.05
2023-03-29T17:38:15.814Z,6.65
2023-03-29T17:40:43.031Z,5.00
2023-03-29T17:43:10.129Z,4.65
2023-03-29T17:45:37.229Z,4.28
2023-03-29T17:48:06.369Z,4.57
2023-03-29T17:50:34.513Z,3.80
2023-03-29T17:53:01.884Z,4.80
2023-03-29T17:55:28.946Z,12.63
2023-03-29T17:57:56.508Z,8.38
2023-03-29T18:00:23.692Z,3.80
2023-03-29T18:02:50.787Z,4.28
2023-03-29T18:05:18.805Z,4.55
2023-03-29T18:07:46.288Z,5.10
2023-03-29T18:10:13.711Z,5.22
2023-03-29T18:12:40.924Z,5.95
2023-03-29T18:15:09.129Z,6.03
2023-03-29T18:17:36.454Z,5.13
2023-03-29T18:20:10.130Z,5.20
2023-03-29T18:22:38.988Z,4.53
2023-03-29T18:25:07.573Z,3.80
2023-03-29T18:27:34.702Z,4.80
2023-03-29T18:30:02.367Z,5.20
2023-03-29T18:32:29.582Z,3.22
2023-03-29T18:34:56.812Z,5.18
2023-03-29T18:37:23.981Z,5.53
2023-03-29T18:39:51.110Z,5.40
2023-03-29T18:42:20.478Z,4.70
2023-03-29T18:44:47.630Z,4.78
2023-03-29T18:47:14.856Z,5.65
2023-03-29T18:49:42.369Z,5.50
2023-03-29T18:52:10.004Z,4.03
2023-03-29T18:54:37.466Z,7.32
2023-03-29T18:57:04.543Z,4.10
2023-03-29T18:59:31.767Z,4.18
2023-03-29T19:01:59.015Z,11.70
2023-03-29T19:04:27.338Z,4.50
2023-03-29T19:06:55.794Z,3.28
2023-03-29T19:09:23.646Z,5.38
2023-03-29T19:11:50.805Z,4.78
2023-03-29T19:14:23.546Z,3.30
2023-03-29T19:16:52.345Z,4.65
2023-03-29T19:19:20.046Z,5.20
2023-03-29T19:21:47.518Z,2.83
2023-03-29T19:24:14.888Z,3.13
2023-03-29T19:26:43.723Z,4.07
2023-03-29T19:29:10.916Z,4.40
2023-03-29T19:31:38.305Z,3.80
2023-03-29T19:34:07.164Z,3.72
2023-03-29T19:36:34.451Z,3.97
2023-03-29T19:39:01.876Z,3.50
2023-03-29T19:41:28.982Z,4.70
2023-03-29T19:43:56.128Z,5.93
2023-03-29T19:46:23.674Z,4.70
2023-03-29T19:48:55.686Z,7.68
2023-03-29T19:51:23.812Z,5.63
2023-03-29T19:53:50.987Z,4.95
2023-03-29T19:56:18.072Z,6.13
2023-03-29T19:58:46.911Z,4.57
2023-03-29T20:01:15.772Z,6.82
2023-03-29T20:03:43.762Z,3.83
2023-03-29T20:06:11.128Z,4.40
2023-03-29T20:08:39.041Z,6.10
2023-03-29T20:11:10.379Z,7.10
2023-03-29T20:13:46.663Z,6.85
2023-03-29T20:16:16.387Z,4.50
2023-03-29T20:18:47.711Z,4.65
2023-03-29T20:21:16.938Z,5.43
2023-03-29T20:23:44.590Z,12.40
2023-03-29T20:26:12.199Z,10.95
2023-03-29T20:28:39.704Z,10.60
2023-03-29T20:31:10.871Z,9.57
2023-03-29T20:33:39.171Z,9.27
2023-03-29T20:36:06.861Z,8.82
2023-03-29T20:38:35.104Z,7.03
2023-03-29T20:41:04.444Z,4.82
2023-03-29T20:43:37.751Z,5.38
2023-03-29T20:46:14.556Z,5.65
2023-03-29T20:48:54.414Z,4.60
2023-03-29T20:51:28.193Z,6.32
2023-03-29T20:54:02.544Z,4.63
2023-03-29T20:56:31.508Z,4.10
2023-03-29T20:58:59.031Z,3.60
2023-03-29T21:01:28.038Z,3.50
2023-03-29T21:03:55.809Z,4.95
2023-03-29T21:06:24.493Z,4.88
2023-03-29T21:08:52.723Z,4.80
2023-03-29T21:11:21.099Z,4.97
2023-03-29T21:13:48.398Z,3.75
2023-03-29T21:16:15.890Z,4.47
2023-03-29T21:18:43.632Z,3.38
2023-03-29T21:21:11.958Z,4.22
2023-03-29T21:23:39.114Z,5.35
2023-03-29T21:26:09.609Z,5.32
2023-03-29T21:28:37.755Z,6.40
2023-03-29T21:31:06.737Z,8.07
2023-03-29T21:33:35.249Z,5.68
2023-03-29T21:36:02.819Z,5.95
2023-03-29T21:38:30.032Z,5.07
2023-03-29T21:40:58.314Z,7.00
2023-03-29T21:43:25.604Z,7.10
2023-03-29T21:45:52.707Z,8.85
2023-03-29T21:48:19.907Z,8.88
2023-03-29T21:50:52.838Z,15.55
2023-03-29T21:53:20.560Z,7.63
2023-03-29T21:55:51.566Z,8.45
2023-03-29T21:58:19.471Z,8.80
2023-03-29T22:00:47.723Z,8.60
2023-03-29T22:03:16.057Z,7.07
2023-03-29T22:05:44.460Z,9.25
2023-03-29T22:08:11.888Z,12.85
2023-03-29T22:10:41.526Z,10.80
2023-03-29T22:13:09.404Z,9.85
2023-03-29T22:15:36.541Z,11.68
2023-03-29T22:18:04.338Z,10.23
2023-03-29T22:20:35.786Z,10.45
2023-03-29T22:23:03.441Z,8.60
2023-03-29T22:25:30.592Z,9.43
2023-03-29T22:27:58.396Z,8.48
2023-03-29T22:30:25.460Z,11.02
2023-03-29T22:32:52.769Z,10.13
2023-03-29T22:35:19.893Z,9.68
2023-03-29T22:37:46.998Z,9.23
2023-03-29T22:40:14.367Z,8.00
2023-03-29T22:42:41.604Z,12.10
2023-03-29T22:45:09.450Z,11.07
2023-03-29T22:47:36.738Z,14.35
2023-03-29T22:50:04.111Z,10.13
2023-03-29T22:52:31.559Z,12.05
2023-03-29T22:54:58.689Z,8.77
2023-03-29T22:57:25.886Z,11.10
2023-03-29T22:59:53.006Z,10.05
2023-03-29T23:02:20.344Z,10.55
2023-03-29T23:04:47.774Z,8.85
2023-03-29T23:07:14.973Z,9.43
2023-03-29T23:09:42.435Z,9.98
2023-03-29T23:12:09.865Z,11.32
2023-03-29T23:14:37.638Z,10.73
2023-03-29T23:17:04.865Z,11.73
2023-03-29T23:19:32.013Z,12.30
2023-03-29T23:21:59.138Z,10.45
2023-03-29T23:24:26.207Z,12.27
2023-03-29T23:26:53.321Z,9.73
2023-03-29T23:29:20.384Z,9.38
2023-03-29T23:31:47.779Z,10.82
2023-03-29T23:34:15.094Z,11.48
2023-03-29T23:36:42.226Z,9.65
2023-03-29T23:39:10.074Z,9.18
2023-03-29T23:41:40.234Z,9.02
2023-03-29T23:44:07.428Z,9.00
2023-03-29T23:46:34.716Z,8.75
2023-03-29T23:49:01.872Z,9.70
2023-03-29T23:51:29.044Z,8.40
2023-03-29T23:53:57.153Z,10.68
2023-03-29T23:56:24.473Z,8.55
2023-03-29T23:58:51.940Z,10.55
